Time;durP1;ratioP1;P1;durP2;ratioP2;P2;SDS_P1;SDS_P2;PMS_P1;PMS_P2;Temp;Humidity;BMP_temperature;BMP_pressure;BME280_temperature;BME280_humidity;BME280_pressure;Samples;Min_cycle;Max_cycle;Signal;HPM_P1;HPM_P2
2022/03/01 00:00:35;;;;;;;23.53;11.07;;;-1.50;99.90;;;;;;5115483;28;20247;-87
2022/03/01 00:03:02;;;;;;;24.20;10.03;;;-1.60;99.90;;;;;;5115589;28;20187;-85
2022/03/01 00:05:29;;;;;;;26.10;12.40;;;-1.60;99.90;;;;;;5115298;28;20206;-85
2022/03/01 00:07:56;;;;;;;29.93;11.50;;;-1.60;99.90;;;;;;5115490;27;20187;-86
2022/03/01 00:10:23;;;;;;;29.97;11.77;;;-1.60;99.90;;;;;;5114944;28;20638;-87
2022/03/01 00:12:53;;;;;;;26.37;9.97;;;-1.60;99.90;;;;;;5115421;28;20187;-87
2022/03/01 00:15:20;;;;;;;23.67;9.77;;;-1.60;99.90;;;;;;5115515;28;20634;-87
2022/03/01 00:17:47;;;;;;;30.50;11.57;;;-1.70;99.90;;;;;;5115440;28;20206;-86
2022/03/01 00:20:15;;;;;;;31.73;11.63;;;-1.70;99.90;;;;;;5114963;28;20326;-86
2022/03/01 00:22:42;;;;;;;28.73;13.33;;;-1.70;99.90;;;;;;5114745;28;20198;-87
2022/03/01 00:25:09;;;;;;;154.87;138.90;;;-1.70;99.90;;;;;;5114916;28;20195;-86
2022/03/01 00:27:36;;;;;;;31.77;12.07;;;-1.80;99.90;;;;;;5114761;28;20634;-87
2022/03/01 00:30:06;;;;;;;29.33;11.77;;;-1.80;99.90;;;;;;5115320;28;20576;-87
2022/03/01 00:32:33;;;;;;;28.83;11.50;;;-1.80;99.90;;;;;;5114647;28;20588;-86
2022/03/01 00:35:00;;;;;;;26.50;10.63;;;-1.80;99.90;;;;;;5114615;28;20194;-87
2022/03/01 00:37:27;;;;;;;28.37;10.60;;;-1.90;99.90;;;;;;5114706;28;20222;-86
2022/03/01 00:39:54;;;;;;;28.53;11.70;;;-1.90;99.90;;;;;;5113996;28;20532;-87
2022/03/01 00:42:21;;;;;;;33.77;11.80;;;-1.90;99.90;;;;;;5113945;28;20626;-87
2022/03/01 00:44:48;;;;;;;24.70;9.47;;;-1.90;99.90;;;;;;5115141;28;20191;-87
2022/03/01 00:47:16;;;;;;;29.53;10.53;;;-2.00;99.90;;;;;;5114595;28;20194;-87
2022/03/01 00:49:43;;;;;;;23.73;10.23;;;-1.90;99.90;;;;;;5114615;28;20263;-87
2022/03/01 00:52:10;;;;;;;28.23;11.23;;;-2.00;99.90;;;;;;5114567;28;20182;-87
2022/03/01 00:54:37;;;;;;;28.07;12.40;;;-2.00;99.90;;;;;;5114414;28;20179;-87
2022/03/01 00:57:05;;;;;;;37.83;17.70;;;-2.00;99.90;;;;;;5113900;28;20210;-87
2022/03/01 00:59:32;;;;;;;30.47;10.27;;;-2.10;99.90;;;;;;5114446;28;20631;-87
2022/03/01 01:01:59;;;;;;;28.13;10.80;;;-2.10;99.90;;;;;;5114421;28;20186;-87
2022/03/01 01:04:27;;;;;;;27.47;12.10;;;-2.10;99.90;;;;;;5114034;28;20187;-87
2022/03/01 01:06:54;;;;;;;23.40;10.43;;;-2.10;99.90;;;;;;5114495;28;20280;-87
2022/03/01 01:09:21;;;;;;;24.13;10.37;;;-2.20;99.90;;;;;;5114127;28;20684;-87
2022/03/01 01:11:48;;;;;;;28.73;11.37;;;-2.10;99.90;;;;;;5113747;28;20191;-88
2022/03/01 01:14:15;;;;;;;25.47;10.83;;;-2.20;99.90;;;;;;5113613;28;20631;-87
2022/03/01 01:16:42;;;;;;;21.20;9.73;;;-2.20;99.90;;;;;;5114019;28;20278;-88
2022/03/01 01:19:10;;;;;;;28.20;11.97;;;-2.20;99.90;;;;;;5113581;28;20703;-86
2022/03/01 01:24:23;;;;;;;25.53;11.27;;;-2.20;99.90;;;;;;5113997;28;20169;-87
2022/03/01 01:26:50;;;;;;;24.40;11.20;;;-2.20;99.90;;;;;;5114181;28;20259;-87
2022/03/01 01:29:17;;;;;;;22.30;10.23;;;-2.20;99.90;;;;;;5095263;28;20240;-86
2022/03/01 01:31:44;;;;;;;23.27;10.70;;;-2.20;99.90;;;;;;5093459;28;20295;-87
2022/03/01 01:34:11;;;;;;;25.37;10.97;;;-2.20;99.90;;;;;;5093397;28;20187;-87
2022/03/01 01:36:39;;;;;;;21.83;9.50;;;-2.20;99.90;;;;;;5092858;28;20253;-87
2022/03/01 01:39:06;;;;;;;25.10;10.60;;;-2.20;99.90;;;;;;5097200;28;20193;-88
2022/03/01 01:41:33;;;;;;;27.93;11.60;;;-2.20;99.90;;;;;;5113328;28;20195;-88
2022/03/01 01:44:05;;;;;;;27.33;11.20;;;-2.20;99.90;;;;;;5113510;28;20190;-87
2022/03/01 01:46:32;;;;;;;27.80;10.77;;;-2.20;99.90;;;;;;5113673;28;20273;-86
2022/03/01 01:48:59;;;;;;;25.43;11.03;;;-2.10;99.90;;;;;;5113260;28;20179;-87
2022/03/01 01:51:29;;;;;;;23.27;9.53;;;-2.10;99.90;;;;;;5113495;28;20250;-86
2022/03/01 01:53:58;;;;;;;25.13;10.73;;;-2.10;99.90;;;;;;5112881;28;20239;-88
2022/03/01 01:56:25;;;;;;;30.00;11.43;;;-2.10;99.90;;;;;;5113260;28;20743;-86
2022/03/01 01:58:52;;;;;;;27.20;10.97;;;-2.10;99.90;;;;;;5113664;28;20239;-87
2022/03/01 02:01:19;;;;;;;26.50;9.90;;;-2.10;99.90;;;;;;5112975;28;20191;-87
2022/03/01 02:03:46;;;;;;;32.03;10.97;;;-2.10;99.90;;;;;;5112978;28;20182;-87
2022/03/01 02:06:13;;;;;;;28.43;11.63;;;-2.10;99.90;;;;;;5112801;28;20279;-87
2022/03/01 02:08:40;;;;;;;23.30;10.50;;;-2.10;99.90;;;;;;5113015;27;20314;-86
2022/03/01 02:11:09;;;;;;;23.07;10.13;;;-2.10;99.90;;;;;;5113278;28;20537;-87
2022/03/01 02:13:36;;;;;;;25.63;11.43;;;-2.10;99.90;;;;;;5113176;28;20186;-87
2022/03/01 02:16:03;;;;;;;23.40;10.57;;;-2.10;99.90;;;;;;5113074;28;20187;-86
2022/03/01 02:18:30;;;;;;;23.50;9.60;;;-2.10;99.90;;;;;;5112884;28;20186;-87
2022/03/01 02:20:59;;;;;;;25.00;10.10;;;-2.00;99.90;;;;;;5113345;28;20265;-87
2022/03/01 02:23:26;;;;;;;28.73;10.50;;;-2.00;99.90;;;;;;5113376;28;20622;-87
2022/03/01 02:25:53;;;;;;;21.07;9.53;;;-2.00;99.90;;;;;;5112973;28;20186;-86
2022/03/01 02:28:20;;;;;;;21.20;8.27;;;-2.00;99.90;;;;;;5112709;28;20190;-87
2022/03/01 02:30:47;;;;;;;22.63;9.70;;;-2.00;99.90;;;;;;5113042;28;20240;-87
2022/03/01 02:33:14;;;;;;;24.00;9.73;;;-1.90;99.90;;;;;;5112617;28;20198;-87
2022/03/01 02:35:41;;;;;;;40.93;25.17;;;-1.90;99.90;;;;;;5112910;28;20182;-87
2022/03/01 02:38:09;;;;;;;37.20;11.37;;;-1.90;99.90;;;;;;5112647;28;20206;-88
2022/03/01 02:40:36;;;;;;;27.63;11.67;;;-1.90;99.90;;;;;;5112685;28;20247;-87
2022/03/01 02:43:05;;;;;;;34.20;13.47;;;-2.00;99.90;;;;;;5112953;28;20194;-87
2022/03/01 02:45:32;;;;;;;40.40;12.17;;;-2.00;99.90;;;;;;5112763;28;20197;-87
2022/03/01 02:47:59;;;;;;;30.13;11.53;;;-2.00;99.90;;;;;;5112638;28;20194;-87
2022/03/01 02:50:26;;;;;;;24.67;9.93;;;-2.10;99.90;;;;;;5113024;28;20190;-87
2022/03/01 02:52:53;;;;;;;25.10;10.17;;;-2.10;99.90;;;;;;5112731;28;20665;-87
2022/03/01 02:55:21;;;;;;;21.70;9.13;;;-2.10;99.90;;;;;;5112750;28;20195;-86
2022/03/01 02:57:48;;;;;;;20.57;9.17;;;-2.20;99.90;;;;;;5112620;28;20211;-87
2022/03/01 03:00:16;;;;;;;25.33;11.40;;;-2.20;99.90;;;;;;5112842;28;20198;-87
2022/03/01 03:02:43;;;;;;;23.23;10.57;;;-2.20;99.90;;;;;;5112699;28;20627;-87
2022/03/01 03:05:11;;;;;;;26.10;12.80;;;-2.20;99.90;;;;;;5113272;28;20275;-87
2022/03/01 03:07:38;;;;;;;33.63;21.00;;;-2.30;99.90;;;;;;5116381;28;20214;-87
2022/03/01 03:10:07;;;;;;;53.90;48.73;;;-2.30;99.90;;;;;;5116508;27;20187;-87
2022/03/01 03:12:35;;;;;;;56.47;51.03;;;-2.30;99.90;;;;;;5116379;28;20189;-87
2022/03/01 03:15:03;;;;;;;29.03;23.00;;;-2.40;99.90;;;;;;5116468;28;20198;-88
2022/03/01 03:17:30;;;;;;;22.10;9.57;;;-2.40;99.90;;;;;;5116322;28;20214;-87
2022/03/01 03:19:57;;;;;;;24.47;9.77;;;-2.40;99.90;;;;;;5116540;28;20216;-86
2022/03/01 03:22:24;;;;;;;29.47;10.37;;;-2.40;99.90;;;;;;5116387;28;20247;-87
2022/03/01 03:24:51;;;;;;;23.63;10.50;;;-2.40;99.90;;;;;;5116401;28;20239;-87
2022/03/01 03:27:18;;;;;;;19.63;10.40;;;-2.40;99.90;;;;;;5116317;28;20198;-87
2022/03/01 03:29:46;;;;;;;24.33;10.10;;;-2.40;99.90;;;;;;5116087;28;20191;-88
2022/03/01 03:32:13;;;;;;;12.13;5.60;;;-2.40;99.90;;;;;;5116212;28;20187;-87
2022/03/01 03:34:40;;;;;;;22.33;9.43;;;-2.40;99.90;;;;;;5115838;28;20186;-86
2022/03/01 03:37:07;;;;;;;17.20;8.17;;;-2.50;99.90;;;;;;5115927;28;20263;-87
2022/03/01 03:39:34;;;;;;;22.00;9.17;;;-2.40;99.90;;;;;;5115756;28;20235;-86
2022/03/01 03:42:01;;;;;;;20.20;9.60;;;-2.40;99.90;;;;;;5115534;28;20631;-88
2022/03/01 03:44:28;;;;;;;29.13;19.63;;;-2.40;99.90;;;;;;5115793;27;20574;-88
2022/03/01 03:46:57;;;;;;;30.00;21.97;;;-2.40;99.90;;;;;;5115118;28;20632;-87
2022/03/01 03:49:24;;;;;;;60.83;44.83;;;-2.40;99.90;;;;;;5115933;28;20194;-86
2022/03/01 03:51:51;;;;;;;18.67;7.90;;;-2.40;99.90;;;;;;5115830;28;20205;-88
2022/03/01 03:54:18;;;;;;;23.93;10.07;;;-2.40;99.90;;;;;;5115814;28;20525;-87
2022/03/01 03:56:45;;;;;;;25.47;10.30;;;-2.40;99.90;;;;;;5115536;28;20190;-87
2022/03/01 03:59:12;;;;;;;20.23;9.30;;;-2.30;99.90;;;;;;5115695;28;20183;-86
2022/03/01 04:01:39;;;;;;;23.90;9.50;;;-2.30;99.90;;;;;;5114798;28;20186;-87
2022/03/01 04:04:08;;;;;;;23.43;9.83;;;-2.30;99.90;;;;;;5115662;28;20187;-87
2022/03/01 04:06:35;;;;;;;34.17;11.13;;;-2.30;99.90;;;;;;5115479;28;20223;-87
2022/03/01 04:09:02;;;;;;;31.40;10.33;;;-2.30;99.90;;;;;;5114821;28;20683;-87
2022/03/01 04:11:29;;;;;;;22.80;10.90;;;-2.30;99.90;;;;;;5115689;28;20583;-87
2022/03/01 04:13:57;;;;;;;24.87;11.50;;;-2.20;99.90;;;;;;5115062;28;20244;-87
2022/03/01 04:16:24;;;;;;;25.03;8.93;;;-2.20;99.90;;;;;;5114749;28;20190;-86
2022/03/01 04:18:54;;;;;;;24.90;10.70;;;-2.20;99.90;;;;;;5115138;28;20427;-87
2022/03/01 04:21:23;;;;;;;24.93;11.80;;;-2.20;99.90;;;;;;5114977;28;20186;-87
2022/03/01 04:23:50;;;;;;;26.63;12.23;;;-2.20;99.90;;;;;;5114726;28;20582;-87
2022/03/01 04:26:17;;;;;;;23.43;10.67;;;-2.20;99.90;;;;;;5115215;28;20218;-87
2022/03/01 04:28:44;;;;;;;33.20;19.33;;;-2.20;99.90;;;;;;5115026;28;20190;-86
2022/03/01 04:31:11;;;;;;;28.00;13.10;;;-2.20;99.90;;;;;;5114977;28;20191;-87
2022/03/01 04:33:38;;;;;;;118.70;89.67;;;-2.20;99.90;;;;;;5114470;28;20728;-86
2022/03/01 04:36:06;;;;;;;124.87;91.17;;;-2.20;99.90;;;;;;5114756;28;20562;-87
2022/03/01 04:38:37;;;;;;;96.33;81.00;;;-2.20;99.90;;;;;;5114631;28;20206;-86
2022/03/01 04:41:04;;;;;;;63.57;51.10;;;-2.20;99.90;;;;;;5114241;28;20186;-86
2022/03/01 04:43:31;;;;;;;101.57;79.67;;;-2.20;99.90;;;;;;5114043;28;20183;-87
2022/03/01 04:45:58;;;;;;;33.50;22.87;;;-2.20;99.90;;;;;;5114879;28;20228;-87
2022/03/01 04:48:25;;;;;;;31.47;16.93;;;-2.20;99.90;;;;;;5114720;28;20198;-86
2022/03/01 04:50:52;;;;;;;49.67;36.53;;;-2.20;99.90;;;;;;5114149;28;20190;-87
2022/03/01 04:53:20;;;;;;;208.97;133.10;;;-2.20;99.90;;;;;;5114527;28;20194;-87
2022/03/01 04:55:48;;;;;;;35.90;20.87;;;-2.20;99.90;;;;;;5114430;28;20190;-87
2022/03/01 04:58:15;;;;;;;60.17;46.17;;;-2.20;99.90;;;;;;5114308;27;20596;-86
2022/03/01 05:00:42;;;;;;;75.07;57.90;;;-2.20;99.90;;;;;;5114001;28;20503;-87
2022/03/01 05:03:10;;;;;;;38.13;16.53;;;-2.20;99.90;;;;;;5114275;28;20243;-87
2022/03/01 05:05:37;;;;;;;56.07;45.17;;;-2.20;99.90;;;;;;5113922;28;20282;-87
2022/03/01 05:08:04;;;;;;;43.43;27.63;;;-2.30;99.90;;;;;;5113737;28;20881;-87
2022/03/01 05:10:31;;;;;;;40.77;25.43;;;-2.30;99.90;;;;;;5114353;28;20576;-87
2022/03/01 05:13:01;;;;;;;50.50;40.67;;;-2.30;99.90;;;;;;5114396;28;20563;-87
2022/03/01 05:15:29;;;;;;;39.23;17.60;;;-2.30;99.90;;;;;;5114887;28;20186;-87
2022/03/01 05:17:58;;;;;;;54.93;44.87;;;-2.30;99.90;;;;;;5114075;28;20281;-87
2022/03/01 05:20:26;;;;;;;45.77;16.80;;;-2.40;99.90;;;;;;5114176;28;20210;-86
2022/03/01 05:22:54;;;;;;;36.00;15.90;;;-2.40;99.90;;;;;;5113654;28;20222;-87
2022/03/01 05:25:23;;;;;;;33.33;13.77;;;-2.40;99.90;;;;;;5113982;28;21076;-87
2022/03/01 05:27:52;;;;;;;36.83;16.03;;;-2.40;99.90;;;;;;5113200;28;20235;-86
2022/03/01 05:30:22;;;;;;;40.40;17.17;;;-2.40;99.90;;;;;;5113325;28;20186;-87
2022/03/01 05:32:51;;;;;;;29.53;12.23;;;-2.40;99.90;;;;;;5113704;28;20574;-86
2022/03/01 05:35:21;;;;;;;36.50;18.03;;;-2.40;99.90;;;;;;5113711;28;20195;-87
2022/03/01 05:37:52;;;;;;;35.60;13.93;;;-2.40;99.90;;;;;;5113291;28;20206;-88
2022/03/01 05:40:19;;;;;;;32.63;15.53;;;-2.50;99.90;;;;;;5113781;28;20263;-86
2022/03/01 05:42:47;;;;;;;30.77;14.30;;;-2.50;99.90;;;;;;5113499;28;20273;-87
2022/03/01 05:45:15;;;;;;;26.97;11.97;;;-2.50;99.90;;;;;;5113610;28;20546;-87
2022/03/01 05:47:44;;;;;;;39.93;16.93;;;-2.50;99.90;;;;;;5113453;28;20186;-87
2022/03/01 05:50:11;;;;;;;44.23;17.10;;;-2.40;99.90;;;;;;5113438;28;20215;-87
2022/03/01 05:52:39;;;;;;;46.10;30.70;;;-2.40;99.90;;;;;;5113513;28;20206;-87
2022/03/01 05:55:07;;;;;;;52.97;46.77;;;-2.40;99.90;;;;;;5113579;28;20194;-87
2022/03/01 05:57:34;;;;;;;45.33;25.40;;;-2.40;99.90;;;;;;5113251;28;20586;-87
2022/03/01 06:00:01;;;;;;;31.83;15.40;;;-2.40;99.90;;;;;;5113363;28;20198;-87
2022/03/01 06:02:28;;;;;;;43.20;16.85;;;-2.40;99.90;;;;;;5113281;28;20538;-86
2022/03/01 06:04:57;;;;;;;52.20;35.60;;;-2.30;1.00;;;;;;5113120;28;20199;-86
2022/03/01 06:07:24;;;;;;;71.03;58.67;;;-2.20;99.90;;;;;;5113386;28;20197;-85
2022/03/01 06:09:51;;;;;;;58.50;41.97;;;-2.20;1.00;;;;;;5113097;28;20247;-87
2022/03/01 06:12:18;;;;;;;33.53;13.57;;;-2.20;1.00;;;;;;5113333;28;20518;-87
2022/03/01 06:14:45;;;;;;;28.97;14.97;;;-2.10;1.00;;;;;;5113130;28;20259;-87
2022/03/01 06:17:12;;;;;;;37.03;16.37;;;-1.90;1.00;;;;;;5113021;28;20190;-87
2022/03/01 06:19:39;;;;;;;35.53;15.27;;;-1.50;1.00;;;;;;5113059;28;20267;-88
2022/03/01 06:22:08;;;;;;;117.10;94.57;;;-1.20;1.00;;;;;;5113138;28;20627;-88
2022/03/01 06:24:39;;;;;;;133.20;91.50;;;-0.80;1.00;;;;;;5112932;28;20255;-87
2022/03/01 06:27:07;;;;;;;199.77;126.33;;;-0.60;1.00;;;;;;5113070;28;20167;-88
2022/03/01 06:29:35;;;;;;;271.77;138.97;;;-0.40;1.00;;;;;;5112353;28;20239;-87
2022/03/01 06:32:02;;;;;;;335.70;138.10;;;-0.30;1.00;;;;;;5112573;28;20638;-87
2022/03/01 06:34:30;;;;;;;240.27;136.13;;;-0.20;99.90;;;;;;5113183;28;20312;-86
2022/03/01 06:36:57;;;;;;;212.43;131.77;;;-0.30;99.90;;;;;;5113198;28;20218;-87
2022/03/01 06:39:26;;;;;;;292.10;139.33;;;-0.30;99.90;;;;;;5114038;28;20279;-86
2022/03/01 06:41:53;;;;;;;249.47;131.83;;;-0.10;1.00;;;;;;5116985;28;20543;-87
2022/03/01 06:44:20;;;;;;;323.97;140.53;;;0.20;1.00;;;;;;5116718;28;20227;-87
2022/03/01 06:46:47;;;;;;;399.67;143.03;;;0.50;1.00;;;;;;5116966;28;20187;-87
2022/03/01 06:49:14;;;;;;;355.60;148.23;;;0.80;1.00;;;;;;5116190;28;20191;-87
2022/03/01 06:51:41;;;;;;;372.03;150.23;;;1.00;1.00;;;;;;5116928;28;20251;-87
2022/03/01 06:54:08;;;;;;;365.10;164.60;;;1.20;99.90;;;;;;5116900;27;20194;-88
2022/03/01 06:56:36;;;;;;;379.50;169.57;;;1.40;99.90;;;;;;5116373;28;20191;-87
2022/03/01 06:59:03;;;;;;;374.27;161.77;;;1.70;99.90;;;;;;5116628;28;20210;-87
2022/03/01 07:01:30;;;;;;;272.13;154.37;;;2.00;99.90;;;;;;5116327;28;20194;-88
2022/03/01 07:03:57;;;;;;;250.43;161.07;;;2.10;99.90;;;;;;5116903;28;20188;-87
2022/03/01 07:06:24;;;;;;;382.20;176.13;;;2.20;99.90;;;;;;5116196;28;20614;-87
2022/03/01 07:08:51;;;;;;;223.80;161.00;;;2.40;99.90;;;;;;5116670;28;20270;-87
2022/03/01 07:11:18;;;;;;;268.67;151.20;;;2.80;1.00;;;;;;5116033;27;20633;-88
2022/03/01 07:13:46;;;;;;;396.33;185.37;;;3.50;1.00;;;;;;5116091;28;20613;-87
2022/03/01 07:16:13;;;;;;;98.07;86.80;;;4.40;1.00;;;;;;5116410;28;20189;-87
2022/03/01 07:18:42;;;;;;;229.03;151.77;;;5.30;1.00;;;;;;5115884;28;20273;-88
2022/03/01 07:21:09;;;;;;;140.37;125.00;;;6.10;99.90;;;;;;5116381;28;20199;-88
2022/03/01 07:23:36;;;;;;;41.43;18.53;;;6.90;1.00;;;;;;5116412;28;20191;-87
2022/03/01 07:26:04;;;;;;;76.10;57.83;;;7.70;1.00;;;;;;5116148;28;20278;-88
2022/03/01 07:28:31;;;;;;;78.27;49.90;;;8.50;1.00;;;;;;5116683;28;20190;-88
2022/03/01 07:31:00;;;;;;;329.73;238.67;;;9.20;1.00;;;;;;5116362;28;20236;-88
2022/03/01 07:33:27;;;;;;;178.53;131.73;;;9.90;99.90;;;;;;5116052;28;20247;-88
2022/03/01 07:35:54;;;;;;;99.47;80.40;;;10.40;99.90;;;;;;5115623;28;20512;-85
2022/03/01 07:38:21;;;;;;;232.27;196.97;;;11.00;99.90;;;;;;5115316;28;20541;-85
2022/03/01 07:40:48;;;;;;;142.43;122.00;;;11.50;99.90;;;;;;5116023;28;20198;-85
2022/03/01 07:43:15;;;;;;;412.57;265.87;;;12.00;58.00;;;;;;5115795;28;20191;-86
2022/03/01 07:45:42;;;;;;;455.87;294.50;;;12.40;1.00;;;;;;5115736;28;20242;-86
2022/03/01 07:48:12;;;;;;;44.75;23.30;;;12.70;1.00;;;;;;5115269;28;20186;-86
2022/03/01 07:50:39;;;;;;;561.37;321.20;;;13.00;1.00;;;;;;5114860;28;20654;-86
2022/03/01 07:53:06;;;;;;;510.30;327.87;;;13.30;1.00;;;;;;5107952;28;20187;-86
2022/03/01 07:55:34;;;;;;;273.25;245.05;;;13.40;1.00;;;;;;5095281;28;20180;-86
2022/03/01 07:58:01;;;;;;;389.23;306.13;;;13.80;1.00;;;;;;5094651;28;20286;-85
2022/03/01 08:00:28;;;;;;;444.00;321.63;;;14.10;1.00;;;;;;5102786;28;20240;-86
2022/03/01 08:02:55;;;;;;;138.73;73.97;;;14.30;1.00;;;;;;5115145;28;20593;-86
2022/03/01 08:05:24;;;;;;;136.70;72.32;;;14.70;1.00;;;;;;5114906;28;20265;-86
2022/03/01 08:07:52;;;;;;;54.13;31.48;;;15.20;1.00;;;;;;5114617;28;20247;-85
2022/03/01 08:10:21;;;;;;;45.72;27.85;;;15.80;1.00;;;;;;5114995;28;20211;-86
2022/03/01 08:12:48;;;;;;;52.40;34.80;;;16.30;1.00;;;;;;5115212;28;20187;-86
2022/03/01 08:15:15;;;;;;;68.22;41.47;;;16.70;1.00;;;;;;5115205;28;20254;-86
2022/03/01 08:17:49;;;;;;;47.03;29.05;;;17.20;1.00;;;;;;5114968;28;20240;-86
2022/03/01 08:20:16;;;;;;;67.20;40.35;;;17.50;1.00;;;;;;5111486;28;20547;-86
2022/03/01 08:22:45;;;;;;;47.60;27.23;;;17.70;1.00;;;;;;5107244;28;20276;-85
2022/03/01 08:25:12;;;;;;;46.10;24.58;;;17.70;1.00;;;;;;5108675;28;20191;-87
2022/03/01 08:27:39;;;;;;;33.33;21.15;;;17.70;1.00;;;;;;5093985;28;20191;-86
2022/03/01 08:30:09;;;;;;;48.53;26.92;;;17.80;1.00;;;;;;5104740;28;20266;-86
2022/03/01 08:32:36;;;;;;;40.80;23.95;;;17.50;1.00;;;;;;5094409;28;20241;-87
2022/03/01 08:35:03;;;;;;;54.03;28.60;;;17.50;1.00;;;;;;5104385;28;20191;-87
2022/03/01 08:37:30;;;;;;;45.80;20.45;;;17.80;1.00;;;;;;5114930;28;20183;-87
2022/03/01 08:39:59;;;;;;;44.60;23.30;;;17.90;1.00;;;;;;5114734;28;20195;-86
2022/03/01 08:42:26;;;;;;;43.15;20.75;;;17.90;1.00;;;;;;5103048;28;20249;-86
2022/03/01 08:44:53;;;;;;;31.70;16.25;;;17.60;1.00;;;;;;5109088;28;20186;-85
2022/03/01 08:47:20;;;;;;;36.17;19.75;;;17.20;1.00;;;;;;5114289;28;20203;-85
2022/03/01 08:49:47;;;;;;;30.40;18.50;;;16.90;1.00;;;;;;5100495;28;20261;-87
2022/03/01 08:52:17;;;;;;;28.92;17.35;;;16.70;1.00;;;;;;5103090;28;20232;-86
2022/03/01 08:54:44;;;;;;;29.67;19.35;;;16.60;1.00;;;;;;5096964;28;20187;-87
2022/03/01 08:57:12;;;;;;;30.25;19.67;;;16.40;1.00;;;;;;5093824;28;20249;-87
2022/03/01 08:59:39;;;;;;;37.72;22.10;;;16.40;1.00;;;;;;5093017;28;20241;-86
2022/03/01 09:02:06;;;;;;;36.97;21.15;;;16.40;1.00;;;;;;5093591;28;20199;-86
2022/03/01 09:04:33;;;;;;;42.25;26.70;;;16.50;1.00;;;;;;5111048;28;20601;-87
2022/03/01 09:07:03;;;;;;;40.40;25.33;;;16.30;1.00;;;;;;5093787;28;20223;-86
2022/03/01 09:09:31;;;;;;;32.78;23.67;;;16.10;1.00;;;;;;5107718;28;20306;-86
2022/03/01 09:11:58;;;;;;;32.10;20.38;;;16.00;1.00;;;;;;5113127;28;20587;-87
2022/03/01 09:14:27;;;;;;;28.10;20.08;;;16.00;1.00;;;;;;5102424;28;20679;-87
2022/03/01 09:16:54;;;;;;;30.55;16.85;;;16.10;1.00;;;;;;5102236;28;20183;-86
2022/03/01 09:19:23;;;;;;;26.38;17.83;;;16.20;1.00;;;;;;5113420;28;20240;-86
2022/03/01 09:21:50;;;;;;;31.63;21.27;;;16.10;1.00;;;;;;5113538;28;20643;-87
2022/03/01 09:24:20;;;;;;;29.38;18.67;;;16.00;1.00;;;;;;5113987;28;20255;-86
2022/03/01 09:26:47;;;;;;;31.83;19.55;;;16.00;1.00;;;;;;5113345;28;20187;-86
2022/03/01 09:29:14;;;;;;;26.77;17.23;;;15.90;1.00;;;;;;5113682;28;20264;-87
2022/03/01 09:31:44;;;;;;;28.77;20.05;;;15.90;1.00;;;;;;5113894;28;20277;-87
2022/03/01 09:34:11;;;;;;;39.72;24.63;;;15.60;1.00;;;;;;5113681;28;20243;-86
2022/03/01 09:36:38;;;;;;;31.33;20.55;;;15.40;1.00;;;;;;5113831;28;20236;-90
2022/03/01 09:39:05;;;;;;;34.33;21.95;;;15.30;1.00;;;;;;5111811;28;20627;-86
2022/03/01 09:41:34;;;;;;;33.97;19.88;;;15.00;1.00;;;;;;5092410;28;20589;-87
2022/03/01 09:44:01;;;;;;;33.85;20.70;;;14.80;1.00;;;;;;5092924;28;20196;-88
2022/03/01 09:46:28;;;;;;;37.28;22.30;;;14.70;1.00;;;;;;5106607;28;20186;-88
2022/03/01 09:48:57;;;;;;;31.08;20.95;;;14.50;1.00;;;;;;5112745;28;20215;-87
2022/03/01 09:51:24;;;;;;;62.70;33.17;;;14.50;1.00;;;;;;5113675;28;20183;-87
2022/03/01 09:53:52;;;;;;;41.70;19.20;;;14.40;1.00;;;;;;5107326;28;20624;-87
2022/03/01 09:56:20;;;;;;;27.85;17.10;;;14.20;1.00;;;;;;5112985;28;20191;-87
2022/03/01 09:58:47;;;;;;;40.28;19.80;;;13.70;1.00;;;;;;5102136;28;20590;-87
2022/03/01 10:01:16;;;;;;;26.10;17.90;;;13.40;1.00;;;;;;5094722;28;20187;-87
2022/03/01 10:03:48;;;;;;;32.73;18.53;;;13.20;1.00;;;;;;5113494;28;20190;-88
2022/03/01 10:06:18;;;;;;;38.80;19.57;;;12.80;1.00;;;;;;5113672;28;20312;-88
2022/03/01 10:08:46;;;;;;;39.30;20.73;;;12.40;1.00;;;;;;5101732;28;20179;-87
2022/03/01 10:11:16;;;;;;;36.10;19.03;;;12.00;1.00;;;;;;5100676;28;20199;-89
2022/03/01 10:13:43;;;;;;;28.53;17.13;;;11.70;1.00;;;;;;5110130;28;20248;-87
2022/03/01 10:16:12;;;;;;;28.87;17.10;;;11.40;1.00;;;;;;5101165;28;20237;-87
2022/03/01 10:18:41;;;;;;;39.20;20.63;;;11.20;1.00;;;;;;5115178;28;20691;-88
2022/03/01 10:21:10;;;;;;;26.20;16.27;;;10.80;1.00;;;;;;5108674;28;20204;-87
2022/03/01 10:23:41;;;;;;;34.30;18.83;;;10.50;1.00;;;;;;5104490;28;20222;-87
2022/03/01 10:26:16;;;;;;;31.90;20.23;;;10.20;1.00;;;;;;5108738;28;20226;-88
2022/03/01 10:28:45;;;;;;;38.93;23.13;;;10.10;1.00;;;;;;5105716;28;20597;-88
2022/03/01 10:31:14;;;;;;;585.37;363.93;;;9.90;1.00;;;;;;5100610;28;20192;-87
2022/03/01 10:33:53;;;;;;;31.80;17.03;;;9.60;1.00;;;;;;5115982;28;20180;-86
2022/03/01 10:36:23;;;;;;;32.67;17.00;;;9.50;1.00;;;;;;5111543;28;20236;-87
2022/03/01 10:39:00;;;;;;;29.77;15.47;;;9.40;1.00;;;;;;5103508;28;20188;-87
2022/03/01 10:41:29;;;;;;;43.57;21.37;;;9.30;1.00;;;;;;5108459;28;20194;-87
2022/03/01 10:43:59;;;;;;;32.73;16.83;;;9.20;1.00;;;;;;5114139;28;20239;-87
2022/03/01 10:46:27;;;;;;;30.57;15.73;;;9.00;1.00;;;;;;5114536;28;20200;-88
2022/03/01 10:49:07;;;;;;;43.87;20.13;;;8.80;1.00;;;;;;5114779;28;20199;-88
2022/03/01 10:51:38;;;;;;;28.23;13.97;;;8.60;1.00;;;;;;5113716;28;20206;-88
2022/03/01 10:54:06;;;;;;;;;;;8.60;1.00;;;;;;5108265;28;20156;-87
2022/03/01 10:56:38;;;;;;;29.83;14.20;;;8.40;1.00;;;;;;5101870;28;20212;-87
2022/03/01 10:59:08;;;;;;;33.60;17.50;;;8.40;1.00;;;;;;5093994;28;20698;-88
2022/03/01 11:01:35;;;;;;;25.70;14.33;;;8.40;1.00;;;;;;5093691;28;20203;-88
2022/03/01 11:04:03;;;;;;;237.23;138.60;;;8.40;1.00;;;;;;5101085;28;20636;-87
2022/03/01 11:06:30;;;;;;;33.27;18.53;;;8.40;1.00;;;;;;5113599;28;20217;-88
2022/03/01 11:08:59;;;;;;;35.93;23.73;;;8.40;1.00;;;;;;5113328;28;20192;-88
2022/03/01 11:11:30;;;;;;;42.10;27.37;;;8.30;1.00;;;;;;5113330;28;20189;-88
2022/03/01 11:13:59;;;;;;;33.90;17.03;;;8.20;1.00;;;;;;5113305;28;20201;-87
2022/03/01 11:16:49;;;;;;;34.77;14.53;;;8.10;1.00;;;;;;5112558;28;20195;-88
2022/03/01 11:19:40;;;;;;;27.63;12.50;;;8.20;1.00;;;;;;5103316;28;20224;-86
2022/03/01 11:22:18;;;;;;;26.57;13.90;;;8.30;1.00;;;;;;5086319;28;20191;-88
2022/03/01 11:24:45;;;;;;;28.97;15.97;;;8.30;1.00;;;;;;5091931;28;20239;-87
2022/03/01 11:27:20;;;;;;;24.93;13.43;;;8.40;1.00;;;;;;5094658;28;20249;-88
2022/03/01 11:29:48;;;;;;;25.30;14.07;;;8.40;1.00;;;;;;5095912;28;20585;-88
2022/03/01 11:32:18;;;;;;;24.53;13.20;;;8.40;1.00;;;;;;5097575;28;20655;-87
2022/03/01 11:34:46;;;;;;;37.27;20.93;;;8.40;1.00;;;;;;5103482;28;20691;-87
2022/03/01 11:37:17;;;;;;;23.57;12.80;;;8.50;1.00;;;;;;5109280;28;20593;-89
2022/03/01 11:39:44;;;;;;;20.23;12.87;;;8.50;1.00;;;;;;5096169;28;20195;-88
2022/03/01 11:42:20;;;;;;;20.40;11.17;;;8.50;1.00;;;;;;5095899;28;20582;-89
2022/03/01 11:44:51;;;;;;;28.37;14.43;;;8.50;1.00;;;;;;5095583;28;20626;-88
2022/03/01 11:47:27;;;;;;;22.00;12.73;;;8.40;1.00;;;;;;5095948;28;20302;-88
2022/03/01 11:49:54;;;;;;;20.67;12.10;;;8.40;1.00;;;;;;5095730;28;20238;-88
2022/03/01 11:52:23;;;;;;;19.53;11.27;;;8.40;1.00;;;;;;5097837;28;20198;-87
2022/03/01 11:54:52;;;;;;;19.37;10.00;;;8.30;1.00;;;;;;5115894;28;20190;-87
2022/03/01 11:57:25;;;;;;;21.70;12.50;;;8.40;1.00;;;;;;5116366;28;20185;-87
2022/03/01 11:59:57;;;;;;;20.53;10.70;;;8.50;1.00;;;;;;5116125;28;20248;-88
2022/03/01 12:02:27;;;;;;;18.07;9.43;;;8.50;1.00;;;;;;5116218;28;20246;-88
2022/03/01 12:04:56;;;;;;;18.10;8.83;;;8.50;1.00;;;;;;5115756;28;20222;-88
2022/03/01 12:07:25;;;;;;;19.97;12.07;;;8.40;1.00;;;;;;5115827;28;20627;-88
2022/03/01 12:09:59;;;;;;;17.77;10.00;;;8.40;1.00;;;;;;5116089;27;20217;-88
2022/03/01 12:12:36;;;;;;;20.37;12.00;;;8.30;1.00;;;;;;5116239;28;20194;-88
2022/03/01 12:15:05;;;;;;;23.47;12.93;;;8.30;1.00;;;;;;5112282;28;20244;-87
2022/03/01 12:17:42;;;;;;;22.77;11.60;;;8.30;1.00;;;;;;5108387;28;20194;-89
2022/03/01 12:20:11;;;;;;;19.77;10.03;;;8.40;1.00;;;;;;5115973;28;20526;-89
2022/03/01 12:22:38;;;;;;;20.43;11.20;;;8.30;1.00;;;;;;5115413;28;20246;-88
2022/03/01 12:25:06;;;;;;;19.90;10.43;;;8.30;1.00;;;;;;5115220;28;20654;-89
2022/03/01 12:27:35;;;;;;;19.50;10.67;;;8.30;1.00;;;;;;5114884;28;20190;-89
2022/03/01 12:30:04;;;;;;;19.17;10.83;;;8.30;1.00;;;;;;5115306;28;20210;-89
2022/03/01 12:32:34;;;;;;;25.90;14.97;;;8.30;1.00;;;;;;5114587;28;20246;-88
2022/03/01 12:35:02;;;;;;;19.73;9.50;;;8.30;1.00;;;;;;5114994;28;20244;-88
2022/03/01 12:37:30;;;;;;;21.10;10.43;;;8.30;1.00;;;;;;5114664;28;20511;-89
2022/03/01 12:39:57;;;;;;;18.63;9.70;;;8.20;1.00;;;;;;5115121;28;20590;-88